createdAt,value
2019-05-06T00:00:55.364Z,2.30
2019-05-06T00:03:15.187Z,2.30
2019-05-06T00:05:43.619Z,2.30
2019-05-06T00:08:11.261Z,2.20
2019-05-06T00:10:38.989Z,2.30
2019-05-06T00:13:06.720Z,2.20
2019-05-06T00:15:34.536Z,2.20
2019-05-06T00:18:04.256Z,2.10
2019-05-06T00:20:31.662Z,2.10
2019-05-06T00:23:04.844Z,2.10
2019-05-06T00:25:49.842Z,2.10
2019-05-06T00:28:35.382Z,2.00
2019-05-06T00:31:12.758Z,2.10
2019-05-06T00:33:34.234Z,2.10
2019-05-06T00:36:01.765Z,2.10
2019-05-06T00:38:29.225Z,2.10
2019-05-06T00:41:00.072Z,2.10
2019-05-06T00:43:27.623Z,2.00
2019-05-06T00:45:55.280Z,2.00
2019-05-06T00:48:24.409Z,2.00
2019-05-06T00:50:53.596Z,2.00
2019-05-06T00:53:23.907Z,2.10
2019-05-06T00:55:53.662Z,2.10
2019-05-06T00:58:21.041Z,2.10
2019-05-06T01:00:48.541Z,2.10
2019-05-06T01:03:16.077Z,2.20
2019-05-06T01:05:44.426Z,2.20
2019-05-06T01:08:14.028Z,2.20
2019-05-06T01:10:41.409Z,2.20
2019-05-06T01:13:30.065Z,2.20
2019-05-06T01:15:57.580Z,2.30
2019-05-06T01:18:25.006Z,2.30
2019-05-06T01:21:08.990Z,2.40
2019-05-06T01:23:36.613Z,2.40
2019-05-06T01:26:04.275Z,2.40
2019-05-06T01:28:34.049Z,2.40
2019-05-06T01:31:01.553Z,2.50
2019-05-06T01:33:30.013Z,2.50
2019-05-06T01:35:57.490Z,2.50
2019-05-06T01:38:33.924Z,2.50
2019-05-06T01:41:27.843Z,2.50
2019-05-06T01:43:55.298Z,2.50
2019-05-06T01:46:24.307Z,2.50
2019-05-06T01:48:53.632Z,2.50
2019-05-06T01:51:21.480Z,2.50
2019-05-06T01:53:49.135Z,2.50
2019-05-06T01:56:16.680Z,2.60
2019-05-06T01:58:44.303Z,2.60
2019-05-06T02:01:14.808Z,2.60
2019-05-06T02:03:44.209Z,2.60
2019-05-06T02:06:13.894Z,2.60
2019-05-06T02:08:41.431Z,2.60
2019-05-06T02:11:08.930Z,2.60
2019-05-06T02:13:36.407Z,2.60
2019-05-06T02:16:03.996Z,2.60
2019-05-06T02:18:33.875Z,2.60
2019-05-06T02:21:06.622Z,2.70
2019-05-06T02:23:37.960Z,2.70
2019-05-06T02:26:06.107Z,2.70
2019-05-06T02:28:34.446Z,2.80
2019-05-06T02:31:21.394Z,2.80
2019-05-06T02:33:56.079Z,2.80
2019-05-06T02:36:30.270Z,2.90
2019-05-06T02:38:57.822Z,2.90
2019-05-06T02:41:25.448Z,3.00
2019-05-06T02:43:54.122Z,3.00
2019-05-06T02:46:23.784Z,3.00
2019-05-06T02:49:13.162Z,3.00
2019-05-06T02:51:40.072Z,3.00
2019-05-06T02:54:07.724Z,3.00
2019-05-06T02:56:35.311Z,3.00
2019-05-06T02:59:04.000Z,3.10
2019-05-06T03:01:34.038Z,3.10
2019-05-06T03:04:04.090Z,3.10
2019-05-06T03:06:33.799Z,3.20
2019-05-06T03:09:02.966Z,3.20
2019-05-06T03:11:33.157Z,3.20
2019-05-06T03:14:03.258Z,3.30
2019-05-06T03:16:33.068Z,3.30
2019-05-06T03:18:59.688Z,3.40
2019-05-06T03:21:45.081Z,3.50
2019-05-06T03:24:32.913Z,3.50
2019-05-06T03:27:04.136Z,3.60
2019-05-06T03:29:33.117Z,3.60
2019-05-06T03:31:59.732Z,3.60
2019-05-06T03:34:49.350Z,3.60
2019-05-06T03:36:57.223Z,3.60
2019-05-06T03:39:24.951Z,3.70
2019-05-06T03:41:53.681Z,3.70
2019-05-06T03:44:23.862Z,3.80
2019-05-06T03:47:09.412Z,3.80
2019-05-06T03:49:42.674Z,3.80
2019-05-06T03:52:10.159Z,3.90
2019-05-06T03:54:38.190Z,3.90
2019-05-06T03:57:06.053Z,3.90
2019-05-06T03:59:34.860Z,4.00
2019-05-06T04:02:05.189Z,4.10
2019-05-06T04:04:34.420Z,4.10
2019-05-06T04:07:03.449Z,4.10
2019-05-06T04:09:36.325Z,4.10
2019-05-06T04:12:03.647Z,4.20
2019-05-06T04:14:33.646Z,4.10
2019-05-06T04:17:33.090Z,4.20
2019-05-06T04:20:12.777Z,4.20
2019-05-06T04:22:52.909Z,4.20
2019-05-06T04:25:58.149Z,4.30
2019-05-06T04:28:29.054Z,4.30
2019-05-06T04:30:57.215Z,4.30
2019-05-06T04:33:25.439Z,4.30
2019-05-06T04:35:54.955Z,4.20
2019-05-06T04:38:23.544Z,4.20
2019-05-06T04:40:53.924Z,4.20
2019-05-06T04:43:26.257Z,4.30
2019-05-06T04:45:53.704Z,4.30
2019-05-06T04:48:23.410Z,4.30
2019-05-06T04:50:49.811Z,4.30
2019-05-06T04:53:17.434Z,4.30
2019-05-06T04:55:45.103Z,4.40
2019-05-06T04:58:13.471Z,4.40
2019-05-06T05:00:44.364Z,4.50
2019-05-06T05:03:13.697Z,4.50
2019-05-06T05:05:40.479Z,4.60
2019-05-06T05:08:08.196Z,4.60
2019-05-06T05:10:45.525Z,4.70
2019-05-06T05:13:25.159Z,4.80
2019-05-06T05:16:12.807Z,4.80
2019-05-06T05:19:02.976Z,4.90
2019-05-06T05:21:32.293Z,5.00
2019-05-06T05:24:01.916Z,5.10
2019-05-06T05:26:29.723Z,5.20
2019-05-06T05:28:57.244Z,5.30
2019-05-06T05:31:24.932Z,5.40
2019-05-06T05:33:52.737Z,5.40
2019-05-06T05:36:20.487Z,5.50
2019-05-06T05:38:48.277Z,5.40
2019-05-06T05:41:15.870Z,5.30
2019-05-06T05:43:52.699Z,5.30
2019-05-06T05:46:21.882Z,5.30
2019-05-06T05:49:22.566Z,5.40
2019-05-06T05:51:51.998Z,5.50
2019-05-06T05:54:19.765Z,5.70
2019-05-06T05:56:47.562Z,5.90
2019-05-06T05:59:15.181Z,6.10
2019-05-06T06:01:43.440Z,6.30
2019-05-06T06:04:13.029Z,6.50
2019-05-06T06:06:42.359Z,6.70
2019-05-06T06:09:10.124Z,6.90
2019-05-06T06:11:53.001Z,7.10
2019-05-06T06:14:39.653Z,7.30
2019-05-06T06:17:32.740Z,7.50
2019-05-06T06:20:03.281Z,7.60
2019-05-06T06:22:33.092Z,7.80
2019-05-06T06:25:03.875Z,7.80
2019-05-06T06:27:47.576Z,7.80
2019-05-06T06:30:15.278Z,7.90
2019-05-06T06:32:42.842Z,7.90
2019-05-06T06:35:24.932Z,8.00
2019-05-06T06:38:07.628Z,8.10
2019-05-06T06:40:35.218Z,8.20
2019-05-06T06:43:06.616Z,8.30
2019-05-06T06:45:35.210Z,8.50
2019-05-06T06:48:03.086Z,8.60
2019-05-06T06:50:32.846Z,8.80
2019-05-06T06:53:00.375Z,8.90
2019-05-06T06:55:28.041Z,9.10
2019-05-06T06:58:07.289Z,9.30
2019-05-06T07:00:44.175Z,9.40
2019-05-06T07:03:14.958Z,9.40
2019-05-06T07:05:57.659Z,9.30
2019-05-06T07:08:33.955Z,9.30
2019-05-06T07:10:54.551Z,9.30
2019-05-06T07:13:23.165Z,9.30
2019-05-06T07:15:51.968Z,9.30
2019-05-06T07:18:19.821Z,9.20
2019-05-06T07:21:19.131Z,9.20
2019-05-06T07:23:47.663Z,9.30
2019-05-06T07:26:17.214Z,9.30
2019-05-06T07:28:44.623Z,9.40
2019-05-06T07:31:21.106Z,9.40
2019-05-06T07:33:42.955Z,9.40
2019-05-06T07:36:12.859Z,9.50
2019-05-06T07:38:48.901Z,9.60
2019-05-06T07:41:20.235Z,9.80
2019-05-06T07:43:54.606Z,9.90
2019-05-06T07:46:44.638Z,10.10
2019-05-06T07:49:12.783Z,10.10
2019-05-06T07:51:41.966Z,10.20
2019-05-06T07:54:09.670Z,10.30
2019-05-06T07:56:37.204Z,10.20
2019-05-06T07:59:07.528Z,10.20
2019-05-06T08:01:36.625Z,10.40
2019-05-06T08:04:04.331Z,10.60
2019-05-06T08:06:32.178Z,10.70
2019-05-06T08:08:59.878Z,10.80
2019-05-06T08:11:27.415Z,10.90
2019-05-06T08:13:55.867Z,11.00
2019-05-06T08:16:24.349Z,11.00
2019-05-06T08:18:52.474Z,11.00
2019-05-06T08:21:22.813Z,11.00
2019-05-06T08:23:52.248Z,11.20
2019-05-06T08:26:22.230Z,11.40
2019-05-06T08:28:49.482Z,11.50
2019-05-06T08:31:18.816Z,11.70
2019-05-06T08:33:46.566Z,11.90
2019-05-06T08:36:23.074Z,12.10
2019-05-06T08:38:57.229Z,12.20
2019-05-06T08:41:25.496Z,12.40
2019-05-06T08:43:53.106Z,12.50
2019-05-06T08:46:23.220Z,12.70
2019-05-06T08:48:52.364Z,12.90
2019-05-06T08:51:53.048Z,13.10
2019-05-06T08:54:27.634Z,13.40
2019-05-06T08:56:55.286Z,13.90
2019-05-06T08:59:24.001Z,14.30
2019-05-06T09:01:53.335Z,14.70
2019-05-06T09:04:22.801Z,15.10
2019-05-06T09:06:50.549Z,15.20
2019-05-06T09:09:18.216Z,15.40
2019-05-06T09:11:49.304Z,15.50
2019-05-06T09:14:17.739Z,15.50
2019-05-06T09:16:45.419Z,15.30
2019-05-06T09:19:13.365Z,15.20
2019-05-06T09:21:45.808Z,15.30
2019-05-06T09:24:12.885Z,15.50
2019-05-06T09:26:48.341Z,15.50
2019-05-06T09:29:42.712Z,15.10
2019-05-06T09:32:18.030Z,15.00
2019-05-06T09:34:53.847Z,15.50
2019-05-06T09:37:23.939Z,16.10
2019-05-06T09:39:53.229Z,17.00
2019-05-06T09:42:22.821Z,17.70
2019-05-06T09:44:50.810Z,18.50
2019-05-06T09:47:37.291Z,19.40
2019-05-06T09:50:08.132Z,20.10
2019-05-06T09:52:35.769Z,21.20
2019-05-06T09:55:26.176Z,21.60
2019-05-06T09:58:04.082Z,22.30
2019-05-06T10:00:33.518Z,22.30
2019-05-06T10:03:03.309Z,21.20
2019-05-06T10:05:31.030Z,20.60
2019-05-06T10:07:58.455Z,19.40
2019-05-06T10:10:25.998Z,18.50
2019-05-06T10:12:54.157Z,17.90
2019-05-06T10:15:22.348Z,17.20
2019-05-06T10:18:08.647Z,16.20
2019-05-06T10:20:42.864Z,15.40
2019-05-06T10:23:12.497Z,14.70
2019-05-06T10:25:43.354Z,14.00
2019-05-06T10:28:18.956Z,13.40
2019-05-06T10:30:46.561Z,12.80
2019-05-06T10:33:19.614Z,12.40
2019-05-06T10:35:47.368Z,12.30
2019-05-06T10:38:28.843Z,12.20
2019-05-06T10:41:07.155Z,12.20
2019-05-06T10:43:52.844Z,12.50
2019-05-06T10:46:22.422Z,12.70
2019-05-06T10:48:50.130Z,13.30
2019-05-06T10:51:23.623Z,14.10
2019-05-06T10:53:52.379Z,14.00
2019-05-06T10:56:52.310Z,13.80
2019-05-06T10:59:08.319Z,14.70
2019-05-06T11:01:39.032Z,14.80
2019-05-06T11:04:06.594Z,14.40
2019-05-06T11:06:34.189Z,14.30
2019-05-06T11:09:03.237Z,14.10
2019-05-06T11:11:38.438Z,14.00
2019-05-06T11:14:03.146Z,13.60
2019-05-06T11:16:33.110Z,13.20
2019-05-06T11:19:02.137Z,13.00
2019-05-06T11:21:29.989Z,12.90
2019-05-06T11:23:59.109Z,12.90
2019-05-06T11:26:26.581Z,12.90
2019-05-06T11:28:58.259Z,12.80
2019-05-06T11:31:38.537Z,12.70
2019-05-06T11:34:18.676Z,12.80
2019-05-06T11:36:52.439Z,12.90
2019-05-06T11:39:22.864Z,12.90
2019-05-06T11:42:14.460Z,13.10
2019-05-06T11:44:19.172Z,13.30
2019-05-06T11:46:46.666Z,13.60
2019-05-06T11:49:14.107Z,14.00
2019-05-06T11:51:43.539Z,14.30
2019-05-06T11:54:17.489Z,14.40
2019-05-06T11:56:50.518Z,14.60
2019-05-06T11:59:12.952Z,14.60
2019-05-06T12:01:46.809Z,14.70
2019-05-06T12:04:14.332Z,14.90
2019-05-06T12:06:42.381Z,15.20
2019-05-06T12:09:16.313Z,15.40
2019-05-06T12:11:43.717Z,15.50
2019-05-06T12:14:12.352Z,15.70
2019-05-06T12:16:40.239Z,15.90
2019-05-06T12:19:07.826Z,16.00
2019-05-06T12:21:35.386Z,16.00
2019-05-06T12:24:03.139Z,16.30
2019-05-06T12:26:32.240Z,16.60
2019-05-06T12:29:02.245Z,16.90
2019-05-06T12:31:29.660Z,17.20
2019-05-06T12:33:57.319Z,17.60
2019-05-06T12:36:24.959Z,17.90
2019-05-06T12:39:16.044Z,18.00
2019-05-06T12:42:05.143Z,17.90
2019-05-06T12:44:34.303Z,17.40
2019-05-06T12:47:32.935Z,16.60
2019-05-06T12:50:02.756Z,15.80
2019-05-06T12:52:32.293Z,15.00
2019-05-06T12:55:14.686Z,14.30
2019-05-06T12:57:29.267Z,13.80
2019-05-06T12:59:57.908Z,13.40
2019-05-06T13:02:25.734Z,13.20
2019-05-06T13:04:59.643Z,13.10
2019-05-06T13:07:39.327Z,13.00
2019-05-06T13:10:07.068Z,13.00
2019-05-06T13:12:35.088Z,13.10
2019-05-06T13:15:03.772Z,13.30
2019-05-06T13:17:33.249Z,13.70
2019-05-06T13:20:00.774Z,14.20
2019-05-06T13:22:54.975Z,14.90
2019-05-06T13:25:23.446Z,15.40
2019-05-06T13:27:52.765Z,15.80
2019-05-06T13:30:25.265Z,16.30
2019-05-06T13:32:58.183Z,16.60
2019-05-06T13:35:26.100Z,17.10
2019-05-06T13:37:53.679Z,17.50
2019-05-06T13:40:22.988Z,17.60
2019-05-06T13:43:12.954Z,17.70
2019-05-06T13:45:42.429Z,17.60
2019-05-06T13:48:19.038Z,17.50
2019-05-06T13:50:47.993Z,17.40
2019-05-06T13:53:15.575Z,17.30
2019-05-06T13:55:43.077Z,17.20
2019-05-06T13:58:12.502Z,17.00
2019-05-06T14:00:42.422Z,16.80
2019-05-06T14:03:09.516Z,16.40
2019-05-06T14:05:37.006Z,16.10
2019-05-06T14:08:04.913Z,15.90
2019-05-06T14:10:32.825Z,15.80
2019-05-06T14:13:02.440Z,16.00
2019-05-06T14:15:29.828Z,16.10
2019-05-06T14:17:57.445Z,16.00
2019-05-06T14:20:24.887Z,16.00
2019-05-06T14:22:54.862Z,16.10
2019-05-06T14:25:44.836Z,16.30
2019-05-06T14:28:33.073Z,16.30
2019-05-06T14:31:14.653Z,15.90
2019-05-06T14:33:47.269Z,15.80
2019-05-06T14:36:14.750Z,15.80
2019-05-06T14:38:43.075Z,15.70
2019-05-06T14:41:16.958Z,15.70
2019-05-06T14:43:44.522Z,15.80
2019-05-06T14:46:12.141Z,15.90
2019-05-06T14:48:39.592Z,16.20
2019-05-06T14:51:07.039Z,16.10
2019-05-06T14:53:34.647Z,16.10
2019-05-06T14:56:08.874Z,16.00
2019-05-06T14:58:36.349Z,15.90
2019-05-06T15:01:04.838Z,15.80
2019-05-06T15:03:32.657Z,15.80
2019-05-06T15:06:02.442Z,15.70
2019-05-06T15:08:32.067Z,15.60
2019-05-06T15:10:59.348Z,15.50
2019-05-06T15:13:26.801Z,15.40
2019-05-06T15:15:54.632Z,15.30
2019-05-06T15:18:22.505Z,15.10
2019-05-06T15:20:50.227Z,15.00
2019-05-06T15:23:17.686Z,14.90
2019-05-06T15:25:45.338Z,14.80
2019-05-06T15:28:13.319Z,14.70
2019-05-06T15:31:09.237Z,14.60
2019-05-06T15:33:40.087Z,14.40
2019-05-06T15:36:14.900Z,14.30
2019-05-06T15:38:42.567Z,14.20
2019-05-06T15:41:10.214Z,14.00
2019-05-06T15:43:37.984Z,13.90
2019-05-06T15:46:05.691Z,13.90
2019-05-06T15:48:33.737Z,13.80
2019-05-06T15:51:02.133Z,13.80
2019-05-06T15:53:30.029Z,13.90
2019-05-06T15:55:57.893Z,14.00
2019-05-06T15:58:25.550Z,14.20
2019-05-06T16:00:53.316Z,14.30
2019-05-06T16:03:22.673Z,14.30
2019-05-06T16:05:54.617Z,14.40
2019-05-06T16:08:24.229Z,14.40
2019-05-06T16:10:55.128Z,14.30
2019-05-06T16:13:22.172Z,14.20
2019-05-06T16:15:49.476Z,14.10
2019-05-06T16:18:17.060Z,14.10
2019-05-06T16:20:44.556Z,14.10
2019-05-06T16:23:24.034Z,14.00
2019-05-06T16:25:52.386Z,13.80
2019-05-06T16:28:22.247Z,13.80
2019-05-06T16:30:49.786Z,13.80
2019-05-06T16:33:19.109Z,13.90
2019-05-06T16:35:46.740Z,13.80
2019-05-06T16:38:14.261Z,13.70
2019-05-06T16:40:45.297Z,13.60
2019-05-06T16:43:12.649Z,13.60
2019-05-06T16:45:40.264Z,13.50
2019-05-06T16:48:07.731Z,13.50
2019-05-06T16:50:35.361Z,13.40
2019-05-06T16:53:03.870Z,13.30
2019-05-06T16:55:49.650Z,13.30
2019-05-06T16:58:19.859Z,13.30
2019-05-06T17:00:47.562Z,13.20
2019-05-06T17:03:22.948Z,13.10
2019-05-06T17:06:23.178Z,12.90
2019-05-06T17:08:52.848Z,12.90
2019-05-06T17:11:28.238Z,12.90
2019-05-06T17:13:51.871Z,12.90
2019-05-06T17:16:21.935Z,12.90
2019-05-06T17:18:48.991Z,12.90
2019-05-06T17:21:16.719Z,12.90
2019-05-06T17:23:44.428Z,12.80
2019-05-06T17:26:12.753Z,12.60
2019-05-06T17:28:58.635Z,12.60
2019-05-06T17:31:54.841Z,12.50
2019-05-06T17:34:34.551Z,12.50
2019-05-06T17:37:09.035Z,12.40
2019-05-06T17:39:37.799Z,12.40
2019-05-06T17:42:05.361Z,12.40
2019-05-06T17:44:32.909Z,12.40
2019-05-06T17:47:17.184Z,12.40
2019-05-06T17:49:44.771Z,12.40
2019-05-06T17:52:22.173Z,12.30
2019-05-06T17:54:49.443Z,12.30
2019-05-06T17:57:17.272Z,12.30
2019-05-06T17:59:45.109Z,12.20
2019-05-06T18:02:15.302Z,12.10
2019-05-06T18:04:43.227Z,12.10
2019-05-06T18:07:12.301Z,12.00
2019-05-06T18:09:42.434Z,12.00
2019-05-06T18:12:12.114Z,11.90
2019-05-06T18:14:39.906Z,11.80
2019-05-06T18:17:07.424Z,11.80
2019-05-06T18:19:35.098Z,11.70
2019-05-06T18:22:02.717Z,11.70
2019-05-06T18:24:33.304Z,11.60
2019-05-06T18:27:02.489Z,11.60
2019-05-06T18:29:30.115Z,11.50
2019-05-06T18:31:57.728Z,11.40
2019-05-06T18:34:25.302Z,11.40
2019-05-06T18:36:52.806Z,11.40
2019-05-06T18:39:22.404Z,11.30
2019-05-06T18:41:50.006Z,11.30
2019-05-06T18:44:17.491Z,11.30
2019-05-06T18:46:45.148Z,11.20
2019-05-06T18:49:13.177Z,11.20
2019-05-06T18:51:42.653Z,11.20
2019-05-06T18:54:12.421Z,11.20
2019-05-06T18:56:40.231Z,11.10
2019-05-06T18:59:07.903Z,11.00
2019-05-06T19:01:35.606Z,11.00
2019-05-06T19:04:12.828Z,10.90
2019-05-06T19:06:42.360Z,10.80
2019-05-06T19:09:23.501Z,10.80
2019-05-06T19:11:51.957Z,10.80
2019-05-06T19:14:21.878Z,10.70
2019-05-06T19:16:52.340Z,10.70
2019-05-06T19:19:18.982Z,10.60
2019-05-06T19:21:46.720Z,10.60
2019-05-06T19:24:14.366Z,10.60
2019-05-06T19:26:42.997Z,10.60
2019-05-06T19:29:12.281Z,10.50
2019-05-06T19:31:42.556Z,10.50
2019-05-06T19:34:09.656Z,10.40
2019-05-06T19:36:37.281Z,10.40
2019-05-06T19:39:05.882Z,10.30
2019-05-06T19:41:34.120Z,10.20
2019-05-06T19:44:03.737Z,10.20
2019-05-06T19:46:32.688Z,10.20
2019-05-06T19:49:01.832Z,10.10
2019-05-06T19:51:29.793Z,10.10
2019-05-06T19:53:57.378Z,10.10
2019-05-06T19:56:24.953Z,10.00
2019-05-06T19:58:52.669Z,10.00
2019-05-06T20:01:22.740Z,10.00
2019-05-06T20:03:52.662Z,9.90
2019-05-06T20:06:39.746Z,9.90
2019-05-06T20:09:45.401Z,9.90
2019-05-06T20:12:26.974Z,9.90
2019-05-06T20:14:57.485Z,9.90
2019-05-06T20:17:25.039Z,9.80
2019-05-06T20:19:52.711Z,9.70
2019-05-06T20:22:20.275Z,9.60
2019-05-06T20:24:53.024Z,9.40
2019-05-06T20:27:22.697Z,9.30
2019-05-06T20:29:52.280Z,9.20
2019-05-06T20:32:19.851Z,9.20
2019-05-06T20:34:50.095Z,9.10
2019-05-06T20:37:17.201Z,9.00
2019-05-06T20:39:44.753Z,9.00
2019-05-06T20:42:12.769Z,8.90
2019-05-06T20:44:40.443Z,8.90
2019-05-06T20:47:08.070Z,8.80
2019-05-06T20:49:35.650Z,8.70
2019-05-06T20:52:03.147Z,8.60
2019-05-06T20:54:32.532Z,8.60
2019-05-06T20:57:02.453Z,8.50
2019-05-06T20:59:29.748Z,8.50
2019-05-06T21:01:57.447Z,8.40
2019-05-06T21:04:25.295Z,8.40
2019-05-06T21:06:53.379Z,8.40
2019-05-06T21:09:23.140Z,8.40
2019-05-06T21:11:52.639Z,8.40
2019-05-06T21:14:22.540Z,8.40
2019-05-06T21:16:49.766Z,8.50
2019-05-06T21:19:17.513Z,8.50
2019-05-06T21:21:45.244Z,8.50
2019-05-06T21:24:13.172Z,8.50
2019-05-06T21:26:42.976Z,8.50
2019-05-06T21:29:12.734Z,8.50
2019-05-06T21:31:42.218Z,8.50
2019-05-06T21:34:10.137Z,8.40
2019-05-06T21:36:37.861Z,8.40
2019-05-06T21:39:06.581Z,8.40
2019-05-06T21:41:34.325Z,8.30
2019-05-06T21:44:02.461Z,8.20
2019-05-06T21:46:31.935Z,8.00
2019-05-06T21:48:59.823Z,7.90
2019-05-06T21:51:27.554Z,7.80
2019-05-06T21:53:55.312Z,7.80
2019-05-06T21:56:22.939Z,7.60
2019-05-06T21:58:52.426Z,7.60
2019-05-06T22:01:22.128Z,7.50
2019-05-06T22:03:49.781Z,7.40
2019-05-06T22:06:17.439Z,7.30
2019-05-06T22:08:44.950Z,7.20
2019-05-06T22:11:12.477Z,7.10
2019-05-06T22:13:42.372Z,7.00
2019-05-06T22:16:12.088Z,6.90
2019-05-06T22:18:38.892Z,6.90
2019-05-06T22:21:22.337Z,6.80
2019-05-06T22:24:08.871Z,6.70
2019-05-06T22:26:36.520Z,6.60
2019-05-06T22:29:05.083Z,6.40
2019-05-06T22:31:33.221Z,6.40
2019-05-06T22:34:00.879Z,6.30
2019-05-06T22:36:28.363Z,6.30
2019-05-06T22:38:56.136Z,6.20
2019-05-06T22:41:25.440Z,6.10
2019-05-06T22:43:53.301Z,6.10
2019-05-06T22:46:23.182Z,6.00
2019-05-06T22:48:54.117Z,6.00
2019-05-06T22:51:19.726Z,5.80
2019-05-06T22:53:47.297Z,5.70
2019-05-06T22:56:14.752Z,5.60
2019-05-06T22:58:43.166Z,5.50
2019-05-06T23:01:32.484Z,5.40
2019-05-06T23:04:02.062Z,5.40
2019-05-06T23:06:29.613Z,5.30
2019-05-06T23:08:57.114Z,5.30
2019-05-06T23:11:24.630Z,5.30
2019-05-06T23:13:53.005Z,5.20
2019-05-06T23:16:20.556Z,5.20
2019-05-06T23:18:48.137Z,5.10
2019-05-06T23:21:15.578Z,5.10
2019-05-06T23:23:43.522Z,5.10
2019-05-06T23:26:19.470Z,5.00
2019-05-06T23:28:47.042Z,5.00
2019-05-06T23:31:14.625Z,5.00
2019-05-06T23:33:42.866Z,4.90
2019-05-06T23:36:12.097Z,4.90
2019-05-06T23:39:16.391Z,4.80
2019-05-06T23:42:22.685Z,4.80
2019-05-06T23:45:27.049Z,4.70
2019-05-06T23:48:31.485Z,4.60
2019-05-06T23:51:35.556Z,4.50
2019-05-06T23:54:39.573Z,4.40
2019-05-06T23:57:06.049Z,4.30
2019-05-06T23:59:33.558Z,4.30
